createdAt,value
2022-11-16T00:01:32.000Z,11.80
2022-11-16T00:04:02.221Z,11.80
2022-11-16T00:06:31.957Z,11.81
2022-11-16T00:09:16.985Z,11.85
2022-11-16T00:11:46.285Z,11.81
2022-11-16T00:14:15.582Z,11.81
2022-11-16T00:16:44.897Z,11.78
2022-11-16T00:19:14.397Z,11.79
2022-11-16T00:21:43.753Z,11.76
2022-11-16T00:24:16.011Z,11.79
2022-11-16T00:26:45.302Z,11.79
2022-11-16T00:29:16.577Z,11.76
2022-11-16T00:31:46.803Z,11.75
2022-11-16T00:34:16.382Z,11.75
2022-11-16T00:36:45.713Z,11.73
2022-11-16T00:39:18.122Z,11.67
2022-11-16T00:41:48.801Z,11.73
2022-11-16T00:44:18.923Z,11.78
2022-11-16T00:46:48.471Z,11.73
2022-11-16T00:49:17.826Z,11.74
2022-11-16T00:51:47.384Z,11.75
2022-11-16T00:54:19.478Z,11.78
2022-11-16T00:56:48.982Z,11.82
2022-11-16T00:59:18.503Z,11.75
2022-11-16T01:01:48.007Z,11.84
2022-11-16T01:04:17.339Z,11.83
2022-11-16T01:06:46.839Z,11.80
2022-11-16T01:09:18.803Z,11.80
2022-11-16T01:12:02.727Z,11.76
2022-11-16T01:14:32.460Z,11.72
2022-11-16T01:17:01.803Z,11.77
2022-11-16T01:19:31.104Z,11.68
2022-11-16T01:22:00.776Z,11.70
2022-11-16T01:24:33.544Z,11.78
2022-11-16T01:27:02.883Z,11.54
2022-11-16T01:29:35.569Z,11.66
2022-11-16T01:32:04.893Z,11.71
2022-11-16T01:34:35.237Z,11.67
2022-11-16T01:37:22.962Z,11.69
2022-11-16T01:39:55.368Z,11.61
2022-11-16T01:42:25.347Z,11.61
2022-11-16T01:45:00.386Z,11.58
2022-11-16T01:47:30.270Z,11.59
2022-11-16T01:50:03.221Z,11.62
2022-11-16T01:52:35.617Z,11.58
2022-11-16T01:55:08.172Z,11.58
2022-11-16T01:57:48.212Z,11.58
2022-11-16T02:00:19.075Z,11.58
2022-11-16T02:03:01.254Z,11.58
2022-11-16T02:05:48.424Z,11.55
2022-11-16T02:08:34.855Z,11.56
2022-11-16T02:11:12.714Z,11.62
2022-11-16T02:13:44.983Z,11.61
2022-11-16T02:16:16.737Z,11.59
2022-11-16T02:18:48.807Z,11.50
2022-11-16T02:21:22.137Z,11.60
2022-11-16T02:24:18.661Z,11.60
2022-11-16T02:26:55.747Z,11.55
2022-11-16T02:29:30.048Z,11.58
2022-11-16T02:32:01.934Z,11.59
2022-11-16T02:34:32.500Z,11.56
2022-11-16T02:37:01.811Z,11.54
2022-11-16T02:39:31.803Z,11.54
2022-11-16T02:42:01.134Z,11.58
2022-11-16T02:44:35.751Z,11.49
2022-11-16T02:47:05.973Z,11.56
2022-11-16T02:49:36.730Z,11.58
2022-11-16T02:52:06.134Z,11.56
2022-11-16T02:54:35.512Z,11.53
2022-11-16T02:57:19.614Z,11.53
2022-11-16T02:59:52.198Z,11.51
2022-11-16T03:02:23.458Z,11.59
2022-11-16T03:04:53.128Z,11.61
2022-11-16T03:07:23.289Z,11.56
2022-11-16T03:09:53.060Z,11.37
2022-11-16T03:12:20.431Z,11.44
2022-11-16T03:14:53.264Z,11.47
2022-11-16T03:17:23.348Z,11.44
2022-11-16T03:19:56.553Z,11.39
2022-11-16T03:22:27.353Z,11.41
2022-11-16T03:24:56.652Z,11.36
2022-11-16T03:27:27.736Z,11.35
2022-11-16T03:30:02.738Z,11.36
2022-11-16T03:32:33.762Z,11.37
2022-11-16T03:35:09.426Z,11.46
2022-11-16T03:37:38.923Z,11.44
2022-11-16T03:40:08.982Z,11.30
2022-11-16T03:42:38.335Z,11.43
2022-11-16T03:45:10.925Z,11.43
2022-11-16T03:47:40.543Z,11.36
2022-11-16T03:50:11.453Z,11.42
2022-11-16T03:52:42.503Z,11.37
2022-11-16T03:55:12.092Z,11.35
2022-11-16T03:57:41.434Z,11.28
2022-11-16T04:00:14.301Z,11.31
2022-11-16T04:02:44.311Z,11.29
2022-11-16T04:05:33.400Z,11.35
2022-11-16T04:08:15.380Z,11.37
2022-11-16T04:10:58.220Z,11.37
2022-11-16T04:13:41.960Z,11.39
2022-11-16T04:16:26.524Z,11.44
2022-11-16T04:19:08.383Z,11.30
2022-11-16T04:21:51.043Z,11.33
2022-11-16T04:24:22.280Z,11.25
2022-11-16T04:27:04.806Z,11.33
2022-11-16T04:29:34.469Z,11.28
2022-11-16T04:32:19.231Z,11.29
2022-11-16T04:35:01.045Z,11.23
2022-11-16T04:37:49.339Z,11.24
2022-11-16T04:40:23.895Z,11.24
2022-11-16T04:42:53.712Z,11.29
2022-11-16T04:45:35.921Z,11.29
2022-11-16T04:48:08.801Z,11.24
2022-11-16T04:50:39.743Z,11.28
2022-11-16T04:53:10.204Z,11.31
2022-11-16T04:55:47.025Z,11.24
2022-11-16T04:58:16.848Z,11.25
2022-11-16T05:00:46.201Z,11.25
2022-11-16T05:03:18.451Z,11.16
2022-11-16T05:05:48.300Z,11.21
2022-11-16T05:08:17.811Z,11.21
2022-11-16T05:10:49.036Z,11.20
2022-11-16T05:13:18.639Z,11.24
2022-11-16T05:15:48.275Z,11.17
2022-11-16T05:18:20.242Z,11.23
2022-11-16T05:21:04.269Z,11.16
2022-11-16T05:23:51.441Z,11.12
2022-11-16T05:26:23.778Z,11.09
2022-11-16T05:28:54.346Z,11.11
2022-11-16T05:31:24.123Z,11.16
2022-11-16T05:33:56.185Z,11.17
2022-11-16T05:36:25.860Z,11.07
2022-11-16T05:38:56.465Z,11.07
2022-11-16T05:41:30.080Z,11.10
2022-11-16T05:44:01.073Z,11.08
2022-11-16T05:46:30.805Z,10.99
2022-11-16T05:49:07.843Z,10.94
2022-11-16T05:51:38.636Z,11.03
2022-11-16T05:54:08.475Z,11.06
2022-11-16T05:56:38.351Z,10.88
2022-11-16T05:59:11.231Z,10.87
2022-11-16T06:01:45.443Z,10.84
2022-11-16T06:07:00.583Z,10.84
2022-11-16T06:09:34.167Z,10.70
2022-11-16T06:12:11.882Z,10.71
2022-11-16T06:14:41.248Z,10.73
2022-11-16T06:17:14.422Z,10.95
2022-11-16T06:19:49.999Z,11.02
2022-11-16T06:22:19.439Z,10.94
2022-11-16T06:24:48.748Z,10.99
2022-11-16T06:27:18.131Z,11.06
2022-11-16T06:29:47.989Z,10.97
2022-11-16T06:32:17.423Z,11.02
2022-11-16T06:34:46.829Z,10.99
2022-11-16T06:37:18.855Z,10.96
2022-11-16T06:39:48.171Z,11.04
2022-11-16T06:42:17.482Z,10.99
2022-11-16T06:44:46.880Z,11.04
2022-11-16T06:47:18.836Z,10.99
2022-11-16T06:49:48.241Z,10.95
2022-11-16T06:52:25.891Z,10.99
2022-11-16T06:54:55.455Z,10.93
2022-11-16T06:57:24.943Z,10.89
2022-11-16T06:59:54.369Z,10.77
2022-11-16T07:02:24.029Z,10.75
2022-11-16T07:04:53.444Z,10.82
2022-11-16T07:07:22.923Z,10.79
2022-11-16T07:09:55.063Z,10.81
2022-11-16T07:12:24.472Z,10.75
2022-11-16T07:14:54.031Z,10.64
2022-11-16T07:17:24.167Z,10.62
2022-11-16T07:19:54.798Z,10.58
2022-11-16T07:22:25.207Z,10.56
2022-11-16T07:24:58.709Z,10.51
2022-11-16T07:27:29.092Z,10.50
2022-11-16T07:29:58.474Z,10.56
2022-11-16T07:32:43.952Z,10.53
2022-11-16T07:35:18.714Z,10.45
2022-11-16T07:37:48.065Z,10.45
2022-11-16T07:40:21.258Z,10.41
2022-11-16T07:42:51.420Z,10.37
2022-11-16T07:45:33.286Z,10.35
2022-11-16T07:48:08.803Z,10.32
2022-11-16T07:50:56.581Z,10.28
2022-11-16T07:53:26.252Z,10.33
2022-11-16T07:55:58.175Z,10.34
2022-11-16T07:58:30.365Z,10.40
2022-11-16T08:01:05.494Z,10.30
2022-11-16T08:03:35.934Z,10.23
2022-11-16T08:06:08.285Z,10.21
2022-11-16T08:08:38.006Z,10.26
2022-11-16T08:11:11.169Z,10.25
2022-11-16T08:13:41.003Z,10.23
2022-11-16T08:16:13.267Z,10.18
2022-11-16T08:18:43.339Z,10.15
2022-11-16T08:21:13.860Z,10.15
2022-11-16T08:23:44.958Z,10.12
2022-11-16T08:26:18.706Z,10.17
2022-11-16T08:28:54.090Z,10.13
2022-11-16T08:31:28.671Z,10.19
2022-11-16T08:34:07.665Z,10.19
2022-11-16T08:36:38.600Z,10.21
2022-11-16T08:39:08.641Z,10.18
2022-11-16T08:41:42.197Z,10.21
2022-11-16T08:44:12.618Z,10.27
2022-11-16T08:46:46.011Z,10.27
2022-11-16T08:49:22.310Z,10.10
2022-11-16T08:51:51.853Z,10.27
2022-11-16T08:54:21.776Z,10.27
2022-11-16T08:56:54.121Z,10.15
2022-11-16T08:59:23.627Z,10.15
2022-11-16T09:01:55.328Z,10.18
2022-11-16T09:04:24.655Z,10.20
2022-11-16T09:06:54.932Z,10.20
2022-11-16T09:09:24.308Z,10.25
2022-11-16T09:11:56.902Z,10.31
2022-11-16T09:14:28.943Z,10.36
2022-11-16T09:16:58.244Z,10.42
2022-11-16T09:19:27.650Z,10.46
2022-11-16T09:21:56.976Z,10.55
2022-11-16T09:24:26.240Z,10.60
2022-11-16T09:26:58.166Z,10.63
2022-11-16T09:29:27.840Z,10.62
2022-11-16T09:31:58.422Z,10.64
2022-11-16T09:34:28.412Z,10.61
2022-11-16T09:36:57.746Z,10.56
2022-11-16T09:39:30.934Z,10.58
2022-11-16T09:42:08.363Z,10.67
2022-11-16T09:44:47.568Z,10.72
2022-11-16T09:47:17.822Z,10.81
2022-11-16T09:49:48.870Z,10.84
2022-11-16T09:52:21.691Z,10.91
2022-11-16T09:54:51.107Z,10.99
2022-11-16T09:57:24.457Z,10.77
2022-11-16T09:59:54.721Z,10.84
2022-11-16T10:02:25.688Z,10.83
2022-11-16T10:04:58.531Z,10.95
2022-11-16T10:07:28.895Z,10.90
2022-11-16T10:09:58.317Z,10.83
2022-11-16T10:12:30.476Z,10.89
2022-11-16T10:15:07.210Z,10.87
2022-11-16T10:17:41.151Z,11.07
2022-11-16T10:20:14.725Z,11.24
2022-11-16T10:22:44.563Z,11.33
2022-11-16T10:25:15.924Z,11.36
2022-11-16T10:28:00.040Z,11.46
2022-11-16T10:30:32.029Z,11.25
2022-11-16T10:33:05.531Z,11.27
2022-11-16T10:35:40.473Z,11.49
2022-11-16T10:38:11.630Z,11.55
2022-11-16T10:40:41.526Z,11.56
2022-11-16T10:43:13.774Z,11.52
2022-11-16T10:45:46.409Z,11.54
2022-11-16T10:48:18.537Z,11.47
2022-11-16T10:50:48.179Z,11.36
2022-11-16T10:53:18.105Z,11.44
2022-11-16T10:55:47.528Z,11.56
2022-11-16T10:58:16.930Z,11.63
2022-11-16T11:00:55.020Z,11.71
2022-11-16T11:03:32.256Z,11.73
2022-11-16T11:06:01.810Z,11.87
2022-11-16T11:08:33.198Z,11.91
2022-11-16T11:11:24.261Z,11.95
2022-11-16T11:14:06.983Z,12.03
2022-11-16T11:16:38.946Z,12.10
2022-11-16T11:19:29.168Z,12.03
2022-11-16T11:21:58.876Z,12.14
2022-11-16T11:24:45.048Z,12.17
2022-11-16T11:27:14.877Z,12.11
2022-11-16T11:29:44.172Z,12.08
2022-11-16T11:32:23.938Z,12.21
2022-11-16T11:34:54.892Z,12.27
2022-11-16T11:37:24.719Z,12.30
2022-11-16T11:40:07.085Z,12.30
2022-11-16T11:42:36.349Z,12.31
2022-11-16T11:45:06.709Z,12.43
2022-11-16T11:47:57.893Z,12.54
2022-11-16T11:50:28.885Z,12.57
2022-11-16T11:53:02.676Z,12.82
2022-11-16T11:55:32.179Z,12.67
2022-11-16T11:58:01.667Z,12.78
2022-11-16T12:00:31.622Z,12.60
2022-11-16T12:03:16.044Z,12.67
2022-11-16T12:05:57.929Z,12.73
2022-11-16T12:08:31.218Z,12.72
2022-11-16T12:11:01.589Z,12.74
2022-11-16T12:13:54.880Z,12.81
2022-11-16T12:16:25.852Z,12.80
2022-11-16T12:19:01.337Z,12.83
2022-11-16T12:21:35.999Z,12.82
2022-11-16T12:24:08.659Z,12.84
2022-11-16T12:26:41.181Z,12.93
2022-11-16T12:29:16.715Z,12.92
2022-11-16T12:32:02.392Z,12.91
2022-11-16T12:34:35.789Z,12.95
2022-11-16T12:37:10.191Z,12.86
2022-11-16T12:39:41.400Z,12.97
2022-11-16T12:42:22.700Z,13.07
2022-11-16T12:45:01.999Z,12.92
2022-11-16T12:47:32.959Z,13.08
2022-11-16T12:50:17.980Z,13.13
2022-11-16T12:52:54.060Z,13.18
2022-11-16T12:55:27.138Z,13.19
2022-11-16T12:58:01.308Z,13.28
2022-11-16T13:00:30.716Z,13.08
2022-11-16T13:03:03.323Z,13.23
2022-11-16T13:05:38.059Z,13.32
2022-11-16T13:08:10.583Z,13.23
2022-11-16T13:10:42.890Z,13.28
2022-11-16T13:13:35.408Z,13.20
2022-11-16T13:16:02.322Z,13.31
2022-11-16T13:18:31.623Z,13.29
2022-11-16T13:21:01.930Z,13.44
2022-11-16T13:23:39.099Z,13.56
2022-11-16T13:26:10.477Z,13.47
2022-11-16T13:28:40.510Z,13.61
2022-11-16T13:31:11.817Z,13.63
2022-11-16T13:33:50.246Z,13.47
2022-11-16T13:36:36.669Z,13.51
2022-11-16T13:39:08.777Z,13.52
2022-11-16T13:41:38.509Z,13.51
2022-11-16T13:44:08.760Z,13.62
2022-11-16T13:46:58.942Z,13.54
2022-11-16T13:49:29.198Z,13.55
2022-11-16T13:52:16.812Z,13.65
2022-11-16T13:54:51.463Z,13.60
2022-11-16T13:57:23.594Z,13.60
2022-11-16T14:00:10.778Z,13.51
2022-11-16T14:02:41.155Z,13.52
2022-11-16T14:05:17.472Z,13.38
2022-11-16T14:07:49.665Z,13.35
2022-11-16T14:10:33.897Z,13.46
2022-11-16T14:13:05.918Z,13.52
2022-11-16T14:15:36.130Z,13.46
2022-11-16T14:18:07.317Z,13.47
2022-11-16T14:20:40.046Z,13.45
2022-11-16T14:23:12.634Z,13.38
2022-11-16T14:25:42.499Z,13.27
2022-11-16T14:28:29.718Z,13.14
2022-11-16T14:31:03.079Z,12.99
2022-11-16T14:33:34.329Z,12.93
2022-11-16T14:36:04.037Z,12.87
2022-11-16T14:38:34.477Z,12.86
2022-11-16T14:41:04.821Z,12.89
2022-11-16T14:43:34.763Z,12.83
2022-11-16T14:46:09.347Z,12.72
2022-11-16T14:48:44.875Z,12.71
2022-11-16T14:51:15.518Z,12.69
2022-11-16T14:53:47.233Z,12.65
2022-11-16T14:56:17.156Z,12.63
2022-11-16T14:58:53.281Z,12.52
2022-11-16T15:01:26.022Z,12.45
2022-11-16T15:03:56.606Z,12.39
2022-11-16T15:06:26.776Z,12.33
2022-11-16T15:08:56.909Z,12.29
2022-11-16T15:11:47.484Z,12.31
2022-11-16T15:14:21.415Z,12.28
2022-11-16T15:16:56.780Z,12.18
2022-11-16T15:19:26.385Z,12.13
2022-11-16T15:21:56.037Z,12.08
2022-11-16T15:24:31.049Z,12.03
2022-11-16T15:27:03.664Z,11.95
2022-11-16T15:29:32.948Z,11.92
2022-11-16T15:32:04.838Z,11.85
2022-11-16T15:34:34.136Z,11.79
2022-11-16T15:37:03.445Z,11.67
2022-11-16T15:39:35.111Z,11.68
2022-11-16T15:42:04.569Z,11.58
2022-11-16T15:44:33.958Z,11.54
2022-11-16T15:47:05.837Z,11.47
2022-11-16T15:49:36.094Z,11.31
2022-11-16T15:52:05.387Z,11.26
2022-11-16T15:54:56.191Z,11.19
2022-11-16T15:57:25.886Z,10.93
2022-11-16T15:59:56.823Z,10.92
2022-11-16T16:02:29.832Z,10.81
2022-11-16T16:04:59.257Z,10.77
2022-11-16T16:07:38.538Z,10.73
2022-11-16T16:10:24.167Z,10.61
2022-11-16T16:12:53.699Z,10.57
2022-11-16T16:15:23.727Z,10.53
2022-11-16T16:17:55.647Z,10.50
2022-11-16T16:20:25.580Z,10.42
2022-11-16T16:22:55.006Z,10.35
2022-11-16T16:25:31.232Z,10.21
2022-11-16T16:28:01.040Z,10.17
2022-11-16T16:30:31.320Z,10.11
2022-11-16T16:33:03.843Z,10.03
2022-11-16T16:35:33.853Z,9.94
2022-11-16T16:38:03.534Z,9.92
2022-11-16T16:40:33.076Z,9.77
2022-11-16T16:43:02.368Z,9.72
2022-11-16T16:45:35.535Z,9.73
2022-11-16T16:48:08.161Z,9.60
2022-11-16T16:50:37.472Z,9.61
2022-11-16T16:53:06.877Z,9.50
2022-11-16T16:55:37.664Z,9.47
2022-11-16T16:58:07.290Z,9.47
2022-11-16T17:00:36.744Z,9.36
2022-11-16T17:03:08.942Z,9.11
2022-11-16T17:05:38.288Z,9.19
2022-11-16T17:08:08.062Z,9.12
2022-11-16T17:10:39.655Z,8.97
2022-11-16T17:13:09.022Z,8.93
2022-11-16T17:15:38.304Z,8.85
2022-11-16T17:18:10.214Z,8.88
2022-11-16T17:20:45.108Z,8.80
2022-11-16T17:23:15.246Z,8.82
2022-11-16T17:25:44.498Z,8.76
2022-11-16T17:28:13.856Z,8.68
2022-11-16T17:30:43.168Z,8.62
2022-11-16T17:33:15.103Z,8.51
2022-11-16T17:35:44.403Z,8.71
2022-11-16T17:38:21.108Z,8.60
2022-11-16T17:40:50.432Z,8.58
2022-11-16T17:43:19.732Z,8.54
2022-11-16T17:45:49.023Z,8.47
2022-11-16T17:48:21.387Z,8.60
2022-11-16T17:50:50.769Z,8.55
2022-11-16T17:53:20.038Z,8.65
2022-11-16T17:55:49.306Z,8.88
2022-11-16T17:58:18.624Z,8.91
2022-11-16T18:00:48.161Z,9.03
2022-11-16T18:03:17.744Z,9.21
2022-11-16T18:05:49.759Z,9.32
2022-11-16T18:08:19.141Z,9.47
2022-11-16T18:10:48.472Z,9.52
2022-11-16T18:13:17.767Z,9.45
2022-11-16T18:15:47.090Z,9.38
2022-11-16T18:18:16.451Z,9.59
2022-11-16T18:20:50.733Z,9.67
2022-11-16T18:23:22.605Z,9.63
2022-11-16T18:25:52.082Z,9.68
2022-11-16T18:28:21.391Z,9.57
2022-11-16T18:30:50.827Z,9.66
2022-11-16T18:33:20.142Z,9.75
2022-11-16T18:35:49.449Z,9.75
2022-11-16T18:38:18.728Z,9.86
2022-11-16T18:40:50.684Z,9.90
2022-11-16T18:43:19.979Z,9.92
2022-11-16T18:45:49.235Z,9.90
2022-11-16T18:48:18.557Z,9.92
2022-11-16T18:50:47.858Z,9.81
2022-11-16T18:53:17.205Z,9.76
2022-11-16T18:55:57.458Z,9.78
2022-11-16T19:01:17.657Z,9.87
2022-11-16T19:03:47.068Z,9.81
2022-11-16T19:06:17.915Z,9.79
2022-11-16T19:08:53.651Z,9.73
2022-11-16T19:11:27.137Z,9.74
2022-11-16T19:13:57.364Z,9.69
2022-11-16T19:16:26.826Z,9.82
2022-11-16T19:18:56.140Z,9.84
2022-11-16T19:21:25.469Z,9.80
2022-11-16T19:23:55.676Z,9.77
2022-11-16T19:26:28.460Z,9.87
2022-11-16T19:28:57.795Z,9.96
2022-11-16T19:31:27.512Z,9.82
2022-11-16T19:33:57.415Z,9.80
2022-11-16T19:36:26.967Z,9.67
2022-11-16T19:38:56.288Z,9.67
2022-11-16T19:41:28.362Z,9.75
2022-11-16T19:43:59.685Z,9.72
2022-11-16T19:46:29.824Z,9.74
2022-11-16T19:48:59.265Z,9.81
2022-11-16T19:51:29.107Z,9.87
2022-11-16T19:53:58.666Z,9.85
2022-11-16T19:56:30.755Z,9.85
2022-11-16T19:59:00.079Z,9.87
2022-11-16T20:01:30.209Z,9.92
2022-11-16T20:04:00.060Z,9.94
2022-11-16T20:06:30.815Z,9.90
2022-11-16T20:09:02.182Z,9.94
2022-11-16T20:11:36.423Z,9.94
2022-11-16T20:14:06.416Z,9.94
2022-11-16T20:16:39.021Z,9.98
2022-11-16T20:19:09.068Z,10.03
2022-11-16T20:21:39.045Z,9.98
2022-11-16T20:24:09.111Z,10.08
2022-11-16T20:26:43.804Z,10.08
2022-11-16T20:29:13.373Z,10.15
2022-11-16T20:31:45.040Z,10.14
2022-11-16T20:34:15.192Z,10.25
2022-11-16T20:36:44.892Z,10.13
2022-11-16T20:39:14.984Z,10.17
2022-11-16T20:41:47.951Z,10.13
2022-11-16T20:44:18.380Z,10.16
2022-11-16T20:46:47.810Z,10.13
2022-11-16T20:49:17.134Z,10.13
2022-11-16T20:51:47.602Z,10.17
2022-11-16T20:54:16.963Z,10.24
2022-11-16T20:56:49.578Z,10.25
2022-11-16T20:59:18.935Z,10.22
2022-11-16T21:01:48.869Z,10.23
2022-11-16T21:04:18.765Z,10.29
2022-11-16T21:06:48.123Z,10.33
2022-11-16T21:09:22.867Z,10.28
2022-11-16T21:12:07.410Z,10.29
2022-11-16T21:14:36.716Z,10.26
2022-11-16T21:17:06.017Z,10.29
2022-11-16T21:19:35.301Z,10.37
2022-11-16T21:22:04.584Z,10.32
2022-11-16T21:24:34.779Z,10.36
2022-11-16T21:27:06.826Z,10.39
2022-11-16T21:29:36.109Z,10.39
2022-11-16T21:32:05.417Z,10.40
2022-11-16T21:34:39.776Z,10.38
2022-11-16T21:37:09.499Z,10.38
2022-11-16T21:39:38.814Z,10.40
2022-11-16T21:42:11.918Z,10.43
2022-11-16T21:44:44.573Z,10.47
2022-11-16T21:47:14.149Z,10.49
2022-11-16T21:50:08.648Z,10.42
2022-11-16T21:52:32.846Z,10.43
2022-11-16T21:55:02.134Z,10.48
2022-11-16T21:57:34.054Z,10.47
2022-11-16T22:00:03.777Z,10.49
2022-11-16T22:02:40.898Z,10.49
2022-11-16T22:05:23.470Z,10.52
2022-11-16T22:07:52.878Z,10.54
2022-11-16T22:10:22.213Z,10.55
2022-11-16T22:12:54.174Z,10.56
2022-11-16T22:15:23.467Z,10.59
2022-11-16T22:17:52.734Z,10.61
2022-11-16T22:20:22.099Z,10.64
2022-11-16T22:22:51.433Z,10.57
2022-11-16T22:25:20.979Z,10.57
2022-11-16T22:28:20.278Z,10.52
2022-11-16T22:30:44.213Z,10.69
2022-11-16T22:33:16.719Z,10.69
2022-11-16T22:35:46.018Z,10.63
2022-11-16T22:38:15.290Z,10.60
2022-11-16T22:40:44.559Z,10.57
2022-11-16T22:43:13.834Z,10.57
2022-11-16T22:45:46.252Z,10.61
2022-11-16T22:48:15.584Z,10.56
2022-11-16T22:50:44.961Z,10.59
2022-11-16T22:53:14.278Z,10.61
2022-11-16T22:55:43.592Z,10.63
2022-11-16T22:58:12.976Z,10.58
2022-11-16T23:00:42.523Z,10.58
2022-11-16T23:03:14.444Z,10.62
2022-11-16T23:05:43.963Z,10.72
2022-11-16T23:08:13.306Z,10.69
2022-11-16T23:10:54.943Z,10.78
2022-11-16T23:13:37.038Z,10.68
2022-11-16T23:16:06.641Z,10.74
2022-11-16T23:18:38.511Z,10.71
2022-11-16T23:21:23.098Z,10.87
2022-11-16T23:24:04.879Z,10.83
2022-11-16T23:26:46.987Z,10.86
2022-11-16T23:29:16.615Z,10.90
2022-11-16T23:31:45.913Z,10.86
2022-11-16T23:34:17.900Z,10.82
2022-11-16T23:36:47.190Z,10.72
2022-11-16T23:39:16.693Z,10.68
2022-11-16T23:41:58.486Z,10.62
2022-11-16T23:44:27.845Z,10.55
2022-11-16T23:46:57.119Z,10.54
2022-11-16T23:49:29.035Z,10.48
2022-11-16T23:51:58.336Z,10.47
2022-11-16T23:54:27.663Z,10.41
2022-11-16T23:56:56.950Z,10.42
2022-11-16T23:59:26.343Z,10.46
